< < Back
Terminal Aerodrome Forecast


Current Version              Previous Versions:   1  2  3  4  5  6  7  8  9  

Terminal Aerodrome Forecast

317
FTUS42 KTAE 250807 AAA
TAFTLH
TAF AMD
KTLH 250807Z 2508/2606 12007KT P6SM FEW080 SCT250
     FM251000 09007KT P6SM BKN015
     FM251400 14009KT P6SM SCT040 SCT200
     FM252100 16008KT P6SM BKN050 PROB30 2521/2524 VRB15G25KT 3SM
      -TSRA BKN030CB=

Latest METAR

903
SAUS80 KWBC 252100
MTRTLH
METAR KTLH 252053Z 15009KT 10SM FEW040 BKN250 32/19 A3014 RMK AO2 SLP203
CB DSNT SE T03220194 56013


USA.gov is the U.S. government's official web portal to all federal, state and local government web resources and services.